Time;durP1;ratioP1;P1;durP2;ratioP2;P2;SDS_P1;SDS_P2;PMS_P1;PMS_P2;Temp;Humidity;BMP_temperature;BMP_pressure;BME280_temperature;BME280_humidity;BME280_pressure;Samples;Min_cycle;Max_cycle;Signal;HPM_P1;HPM_P2
2022/05/18 00:00:01;;;;;;;;;6.75;6.50;;;;;24.55;50.60;100955.72;5013726;28;45390;-77
2022/05/18 00:02:27;;;;;;;;;7.00;6.00;;;;;24.48;50.62;100954.44;5014266;28;45517;-76
2022/05/18 00:04:52;;;;;;;;;7.50;7.50;;;;;24.45;50.76;100954.66;5013043;28;45343;-76
2022/05/18 00:07:18;;;;;;;;;4.00;4.00;;;;;24.41;50.97;100959.41;5015572;28;45396;-77
2022/05/18 00:09:43;;;;;;;;;6.00;5.00;;;;;24.38;51.09;100965.03;5014238;28;45395;-75
2022/05/18 00:12:09;;;;;;;;;4.50;4.50;;;;;24.28;51.49;100959.44;5031929;28;45334;-76
2022/05/18 00:14:35;;;;;;;;;5.00;5.00;;;;;24.26;51.34;100965.91;5018918;28;45285;-76
2022/05/18 00:17:03;;;;;;;;;6.50;5.25;;;;;24.23;51.59;100969.72;5013577;28;46508;-76
2022/05/18 00:19:29;;;;;;;;;5.00;5.00;;;;;24.18;51.95;100971.88;5014127;28;45560;-76
2022/05/18 00:21:55;;;;;;;;;4.25;4.25;;;;;24.14;51.75;100970.34;5013311;28;45454;-77
2022/05/18 00:24:21;;;;;;;;;6.00;6.00;;;;;24.07;52.46;100972.63;5015921;28;45548;-76
2022/05/18 00:26:46;;;;;;;;;4.00;4.00;;;;;24.01;52.65;100974.91;5026228;28;45509;-77
2022/05/18 00:29:12;;;;;;;;;5.00;5.00;;;;;23.94;52.81;100972.66;5013735;28;45392;-76
2022/05/18 00:31:37;;;;;;;;;6.25;6.25;;;;;23.93;53.08;100975.47;5013767;28;45609;-76
2022/05/18 00:34:03;;;;;;;;;6.00;6.00;;;;;23.88;53.57;100978.47;5013670;28;45545;-75
2022/05/18 00:36:28;;;;;;;;;5.50;5.50;;;;;23.82;53.62;100984.25;5017477;28;45487;-77
2022/05/18 00:38:53;;;;;;;;;7.00;7.00;;;;;23.73;54.31;100990.28;5015958;28;45474;-76
2022/05/18 00:41:19;;;;;;;;;6.00;6.00;;;;;23.74;54.57;100992.00;5013466;28;45495;-76
2022/05/18 00:43:49;;;;;;;;;5.75;5.75;;;;;23.68;54.64;100992.44;5033761;28;45298;-75
2022/05/18 00:46:14;;;;;;;;;7.00;6.50;;;;;23.62;54.94;100990.16;5034003;28;46108;-76
2022/05/18 00:48:41;;;;;;;;;5.00;4.00;;;;;23.55;55.28;100993.28;5037314;28;45571;-76
2022/05/18 00:51:26;;;;;;;;;6.00;6.00;;;;;23.51;55.64;100989.06;5037203;28;45334;-76
2022/05/18 00:53:59;;;;;;;;;5.25;5.25;;;;;23.44;56.07;100998.53;5032223;28;45504;-76
2022/05/18 00:56:34;;;;;;;;;6.25;5.75;;;;;23.42;56.50;100997.78;5014962;28;45481;-76
2022/05/18 00:59:08;;;;;;;;;6.00;6.00;;;;;23.38;56.47;101002.53;5016797;28;45514;-77
2022/05/18 01:01:34;;;;;;;;;5.00;5.00;;;;;23.36;56.91;101003.59;5016520;28;45415;-76
2022/05/18 01:04:02;;;;;;;;;7.00;7.00;;;;;23.33;56.72;101014.56;5017258;28;45459;-76
2022/05/18 01:06:35;;;;;;;;;6.00;6.00;;;;;23.27;57.49;101015.84;5016884;28;45352;-76
2022/05/18 01:09:12;;;;;;;;;7.25;6.50;;;;;23.23;57.62;101019.69;5015578;28;46057;-77
2022/05/18 01:11:39;;;;;;;;;9.00;7.25;;;;;23.15;58.03;101012.13;5016448;28;45452;-75
2022/05/18 01:14:10;;;;;;;;;7.00;7.00;;;;;23.11;58.37;101018.69;5016669;28;45489;-76
2022/05/18 01:16:36;;;;;;;;;7.00;5.25;;;;;23.10;58.06;101021.50;5016775;28;45560;-76
2022/05/18 01:19:03;;;;;;;;;7.00;6.00;;;;;23.05;58.37;101016.38;5016803;28;45430;-77
2022/05/18 01:21:38;;;;;;;;;8.00;7.00;;;;;23.04;57.93;101017.34;5014916;28;45349;-76
2022/05/18 01:24:24;;;;;;;;;6.00;6.00;;;;;23.04;58.28;101015.50;5014898;28;45729;-76
2022/05/18 01:26:50;;;;;;;;;7.00;7.00;;;;;23.00;58.41;101018.50;5022273;28;45419;-76
2022/05/18 01:29:21;;;;;;;;;7.25;6.50;;;;;22.97;58.49;101024.09;5015883;28;45563;-77
2022/05/18 01:31:51;;;;;;;;;7.00;6.25;;;;;22.91;58.22;101035.25;5026718;28;45400;-77
2022/05/18 01:34:20;;;;;;;;;6.75;6.75;;;;;22.86;58.54;101027.47;5030428;28;45398;-77
2022/05/18 01:36:46;;;;;;;;;7.50;6.50;;;;;22.78;58.94;101025.28;5016727;28;45719;-77
2022/05/18 01:39:20;;;;;;;;;7.25;6.75;;;;;22.73;59.00;101023.84;5017372;28;45351;-76
2022/05/18 01:41:59;;;;;;;;;7.50;6.00;;;;;22.75;59.23;101033.56;5015727;28;45316;-77
2022/05/18 01:44:25;;;;;;;;;6.75;6.75;;;;;22.70;59.27;101039.25;5016171;28;45600;-77
2022/05/18 01:46:52;;;;;;;;;6.50;5.75;;;;;22.65;59.22;101040.50;5015225;28;46094;-77
2022/05/18 01:49:18;;;;;;;;;4.50;4.50;;;;;22.61;59.68;101041.63;5015119;28;45510;-76
2022/05/18 01:51:47;;;;;;;;;9.50;8.00;;;;;22.56;59.83;101035.69;5016023;28;45521;-75
2022/05/18 01:54:13;;;;;;;;;6.00;5.75;;;;;22.55;60.26;101034.84;5016035;28;45554;-76
2022/05/18 01:56:39;;;;;;;;;8.00;8.00;;;;;22.51;60.30;101034.16;5019982;28;46950;-76
2022/05/18 01:59:05;;;;;;;;;8.75;6.75;;;;;22.51;60.30;101046.75;5023248;28;45626;-77
2022/05/18 02:01:30;;;;;;;;;9.50;9.00;;;;;22.47;60.46;101045.22;5015297;28;45513;-77
2022/05/18 02:03:56;;;;;;;;;8.00;5.00;;;;;22.42;60.65;101039.25;5015783;28;45586;-76
2022/05/18 02:06:22;;;;;;;;;7.25;7.25;;;;;22.35;60.86;101033.41;5017030;28;46280;-77
2022/05/18 02:08:47;;;;;;;;;5.75;5.75;;;;;22.28;61.21;101043.63;5015791;28;45698;-76
2022/05/18 02:11:17;;;;;;;;;6.00;6.00;;;;;22.19;61.61;101047.75;5015588;28;45493;-76
2022/05/18 02:13:43;;;;;;;;;7.00;6.00;;;;;22.14;61.71;101057.94;5016188;28;45426;-79
2022/05/18 02:16:09;;;;;;;;;6.75;6.75;;;;;22.04;62.24;101062.16;5015397;28;45431;-76
2022/05/18 02:18:35;;;;;;;;;5.50;5.50;;;;;22.02;62.51;101064.06;5016172;28;45403;-77
2022/05/18 02:21:07;;;;;;;;;8.00;7.00;;;;;21.96;62.70;101067.16;5018167;28;45431;-76
2022/05/18 02:23:33;;;;;;;;;4.75;4.75;;;;;21.90;62.76;101072.88;5035753;28;45374;-75
2022/05/18 02:52:52;;;;;;;;;4.25;4.25;;;;;21.25;63.32;101107.03;5014831;28;45893;-74
2022/05/18 02:58:02;;;;;;;;;5.00;4.00;;;;;21.15;63.67;101121.97;5028213;28;45375;-76
2022/05/18 03:00:27;;;;;;;;;4.00;4.00;;;;;21.15;63.36;101118.38;5013801;28;45610;-75
2022/05/18 03:02:55;;;;;;;;;4.00;4.00;;;;;21.07;63.57;101119.72;5020717;28;45753;-76
2022/05/18 03:05:20;;;;;;;;;4.75;4.75;;;;;20.98;63.54;101122.00;5035055;28;45565;-75
2022/05/18 03:07:46;;;;;;;;;4.25;3.00;;;;;20.96;63.34;101115.88;5034244;28;45477;-76
2022/05/18 03:10:15;;;;;;;;;4.50;4.50;;;;;20.93;63.46;101114.22;5033639;28;45442;-76
2022/05/18 03:12:41;;;;;;;;;4.00;4.00;;;;;20.95;63.54;101109.59;5027091;28;46304;-76
2022/05/18 03:15:07;;;;;;;;;3.00;3.00;;;;;20.93;63.24;101116.91;5014732;28;45435;-76
2022/05/18 03:17:32;;;;;;;;;3.50;3.00;;;;;20.92;63.05;101115.16;5014343;28;45512;-77
2022/05/18 03:19:58;;;;;;;;;2.00;2.00;;;;;20.80;62.77;101121.19;5034667;28;47594;-76
2022/05/18 03:25:07;;;;;;;;;3.00;2.00;;;;;20.70;61.51;101120.84;5014549;28;45391;-76
2022/05/18 03:27:32;;;;;;;;;3.25;2.00;;;;;20.62;61.30;101118.53;5028656;28;45592;-75
2022/05/18 03:29:58;;;;;;;;;1.00;1.00;;;;;20.57;60.87;101134.00;5034762;28;45449;-76
2022/05/18 03:32:23;;;;;;;;;1.50;1.50;;;;;20.55;60.63;101133.22;5015295;28;45498;-75
2022/05/18 03:34:50;;;;;;;;;2.00;2.00;;;;;20.45;61.22;101131.97;5015245;28;45409;-76
2022/05/18 03:37:17;;;;;;;;;1.50;1.50;;;;;20.45;61.55;101131.97;5026503;28;45401;-76
2022/05/18 03:39:43;;;;;;;;;2.00;2.00;;;;;20.44;61.78;101141.84;5025363;28;45404;-76
2022/05/18 03:42:08;;;;;;;;;4.00;2.50;;;;;20.40;62.19;101143.81;5028378;28;45547;-76
2022/05/18 03:44:34;;;;;;;;;3.00;3.00;;;;;20.38;63.57;101158.28;5034287;28;45527;-75
2022/05/18 03:46:59;;;;;;;;;4.50;3.75;;;;;20.33;64.07;101161.22;5024576;28;45995;-75
2022/05/18 03:49:25;;;;;;;;;4.00;4.00;;;;;20.31;63.98;101152.34;5014632;28;45592;-76
2022/05/18 03:51:50;;;;;;;;;3.75;3.00;;;;;20.23;63.70;101157.25;5014212;28;45814;-76
2022/05/18 03:54:16;;;;;;;;;4.00;3.00;;;;;20.18;61.99;101162.84;5014188;28;45436;-76
2022/05/18 03:56:42;;;;;;;;;2.00;2.00;;;;;20.03;61.30;101169.88;5013423;28;45380;-76
2022/05/18 03:59:07;;;;;;;;;1.00;1.00;;;;;19.97;60.72;101170.19;5014216;28;45325;-76
2022/05/18 04:01:32;;;;;;;;;1.00;1.00;;;;;19.97;60.52;101175.53;5023038;28;46052;-76
2022/05/18 04:03:58;;;;;;;;;3.00;3.00;;;;;19.98;60.80;101182.66;5034366;28;45408;-76
2022/05/18 04:06:23;;;;;;;;;4.00;2.00;;;;;19.95;61.14;101176.56;5033486;28;45482;-74
2022/05/18 04:08:49;;;;;;;;;1.75;1.75;;;;;19.91;61.66;101181.22;5027352;28;45629;-75
2022/05/18 04:11:16;;;;;;;;;2.00;2.00;;;;;19.91;61.92;101181.22;5013507;28;45433;-76
2022/05/18 04:13:42;;;;;;;;;3.25;3.25;;;;;19.88;61.85;101186.72;5013740;28;45352;-75
2022/05/18 04:16:08;;;;;;;;;2.00;2.00;;;;;19.83;61.97;101194.13;5014079;28;45368;-76
2022/05/18 04:18:34;;;;;;;;;2.00;2.00;;;;;19.83;62.35;101183.38;5014138;28;45378;-77
2022/05/18 04:21:00;;;;;;;;;2.00;2.00;;;;;19.84;62.33;101196.75;5013628;28;46090;-76
2022/05/18 04:23:26;;;;;;;;;2.00;2.00;;;;;19.83;62.52;101189.63;5017756;28;45366;-76
2022/05/18 04:25:52;;;;;;;;;4.75;3.00;;;;;19.91;62.39;101189.25;5017375;28;45426;-76
2022/05/18 04:28:17;;;;;;;;;3.00;3.00;;;;;20.13;61.05;101180.13;5034127;28;45538;-76
2022/05/18 04:30:45;;;;;;;;;7.75;2.25;;;;;20.47;60.73;101183.78;5035148;28;45921;-76
2022/05/18 04:33:13;;;;;;;;;2.00;1.00;;;;;20.93;58.88;101197.50;5018191;28;45588;-77
2022/05/18 04:35:39;;;;;;;;;2.00;2.00;;;;;21.37;57.63;101196.88;5017833;28;45440;-77
2022/05/18 04:38:04;;;;;;;;;2.00;2.00;;;;;21.80;56.04;101191.81;5030105;28;45557;-77
2022/05/18 04:40:30;;;;;;;;;1.00;1.00;;;;;22.29;54.76;101192.56;5035045;28;47009;-76
2022/05/18 04:42:56;;;;;;;;;1.75;1.75;;;;;22.64;53.48;101189.63;5017481;28;45277;-76
2022/05/18 04:45:22;;;;;;;;;3.25;2.25;;;;;22.85;52.73;101191.00;5034881;28;45472;-75
2022/05/18 04:47:49;;;;;;;;;1.75;1.75;;;;;23.34;51.42;101197.84;5036065;28;45355;-76
2022/05/18 04:50:14;;;;;;;;;2.00;2.00;;;;;23.73;49.92;101198.91;5036645;28;46081;-76
2022/05/18 04:52:40;;;;;;;;;3.00;3.00;;;;;24.20;48.85;101201.25;5018843;28;45399;-76
2022/05/18 04:55:06;;;;;;;;;2.00;1.25;;;;;24.61;47.01;101201.19;5016618;28;45474;-76
2022/05/18 04:57:32;;;;;;;;;2.00;2.00;;;;;24.86;45.63;101196.75;5017247;28;45504;-76
2022/05/18 04:59:57;;;;;;;;;3.00;1.00;;;;;24.98;45.28;101201.28;5016491;28;46228;-77
2022/05/18 05:02:22;;;;;;;;;0.50;0.50;;;;;25.38;44.57;101210.25;5017549;28;45423;-76
2022/05/18 05:04:48;;;;;;;;;1.75;1.75;;;;;25.86;43.48;101213.03;5016780;28;45435;-76
2022/05/18 05:07:13;;;;;;;;;1.00;1.00;;;;;26.23;43.19;101210.25;5017025;28;45564;-76
2022/05/18 05:09:38;;;;;;;;;1.00;1.00;;;;;26.80;41.73;101213.16;5016302;28;46196;-77
2022/05/18 05:12:05;;;;;;;;;1.00;1.00;;;;;27.28;41.09;101219.25;5016261;28;45495;-76
2022/05/18 05:14:33;;;;;;;;;1.00;1.00;;;;;27.62;39.77;101211.09;5026684;28;45548;-78
2022/05/18 05:16:59;;;;;;;;;1.50;0.50;;;;;27.67;39.08;101208.00;5036874;28;45609;-77
2022/05/18 05:19:25;;;;;;;;;1.00;1.00;;;;;27.68;39.21;101209.72;5035491;28;47085;-76
2022/05/18 05:21:50;;;;;;;;;1.75;1.00;;;;;28.00;38.54;101219.78;5027664;28;45454;-77
2022/05/18 05:24:16;;;;;;;;;0.75;0.75;;;;;28.28;37.54;101223.75;5022680;28;51828;-77
2022/05/18 05:26:43;;;;;;;;;1.00;1.00;;;;;28.49;37.12;101231.91;5034963;28;45481;-77
2022/05/18 05:29:09;;;;;;;;;1.50;1.50;;;;;28.87;36.56;101230.47;5034641;28;46806;-84
2022/05/18 05:31:36;;;;;;;;;0.75;0.75;;;;;29.49;36.17;101233.22;5030680;28;45300;-78
2022/05/18 05:34:01;;;;;;;;;0.75;0.75;;;;;30.08;34.74;101242.41;5017330;28;45450;-79
2022/05/18 05:36:28;;;;;;;;;2.00;0.50;;;;;30.47;34.47;101241.56;5017008;28;45557;-79
2022/05/18 05:38:53;;;;;;;;;2.50;1.50;;;;;30.89;33.25;101252.13;5017171;28;46361;-79
2022/05/18 05:41:19;;;;;;;;;2.00;2.00;;;;;31.11;32.79;101250.97;5015830;28;45453;-80
2022/05/18 05:43:45;;;;;;;;;1.00;1.00;;;;;31.39;32.13;101252.88;5016765;28;45545;-80
2022/05/18 05:46:15;;;;;;;;;1.00;1.00;;;;;31.55;32.38;101247.63;5016847;28;45386;-80
2022/05/18 05:48:43;;;;;;;;;1.50;1.50;;;;;31.96;31.62;101245.38;5016112;28;46082;-79
2022/05/18 05:51:12;;;;;;;;;3.50;1.00;;;;;32.50;30.90;101248.09;5016325;28;45486;-80
2022/05/18 05:53:39;;;;;;;;;1.75;0.75;;;;;32.88;30.56;101253.38;5016686;28;45455;-79
2022/05/18 05:56:06;;;;;;;;;0.75;0.75;;;;;32.87;29.41;101251.66;5015251;28;45524;-79
2022/05/18 05:58:33;;;;;;;;;1.75;1.75;;;;;32.99;29.30;101253.09;5016017;28;45564;-77
2022/05/18 06:01:04;;;;;;;;;0.25;0.25;;;;;33.33;29.64;101254.16;5022370;28;45561;-78
2022/05/18 06:03:30;;;;;;;;;0.75;0.50;;;;;33.84;29.15;101256.97;5035707;28;45493;-76
2022/05/18 06:05:56;;;;;;;;;1.00;1.00;;;;;34.23;27.91;101259.09;5017447;28;45348;-79
2022/05/18 06:08:22;;;;;;;;;1.00;0.25;;;;;34.76;28.83;101260.53;5016723;28;46112;-81
2022/05/18 06:10:47;;;;;;;;;0.75;0.75;;;;;35.10;27.08;101264.91;5033690;28;45783;-79
2022/05/18 06:13:13;;;;;;;;;1.00;0.00;;;;;35.53;26.54;101262.75;5035599;28;45431;-77
2022/05/18 06:15:39;;;;;;;;;0.75;0.75;;;;;35.67;26.81;101261.13;5032794;28;45808;-78
2022/05/18 06:18:05;;;;;;;;;0.00;0.00;;;;;35.73;26.59;101262.31;5033583;28;45606;-78
2022/05/18 06:20:30;;;;;;;;;0.25;0.00;;;;;35.98;26.20;101267.69;5034445;28;45481;-82
2022/05/18 06:22:59;;;;;;;;;1.00;0.00;;;;;36.52;26.22;101262.16;5033198;28;45684;-80
2022/05/18 06:25:25;;;;;;;;;1.00;1.00;;;;;36.77;25.26;101264.69;5021759;28;45584;-78
2022/05/18 06:27:51;;;;;;;;;0.25;0.25;;;;;36.61;24.98;101263.78;5033750;28;46778;-78
2022/05/18 06:30:16;;;;;;;;;0.00;0.00;;;;;36.24;25.01;101268.16;5029055;28;45470;-81
2022/05/18 06:32:42;;;;;;;;;0.75;0.75;;;;;36.26;24.95;101274.38;5033709;28;45505;-81
2022/05/18 06:35:07;;;;;;;;;0.00;0.00;;;;;36.36;24.72;101274.13;5027072;28;45630;-80
2022/05/18 06:37:34;;;;;;;;;0.00;0.00;;;;;36.67;24.93;101266.81;5023984;28;46369;-82
2022/05/18 06:40:01;;;;;;;;;0.25;0.25;;;;;36.70;24.87;101277.44;5022815;28;45379;-77
2022/05/18 06:42:26;;;;;;;;;1.00;0.00;;;;;36.91;23.81;101269.38;5026473;28;45398;-76
2022/05/18 06:44:52;;;;;;;;;2.50;1.00;;;;;36.86;23.58;101271.81;5023897;28;45394;-76
2022/05/18 06:47:17;;;;;;;;;2.00;1.00;;;;;36.80;23.73;101275.34;5031832;28;46351;-78
2022/05/18 06:49:43;;;;;;;;;0.00;0.00;;;;;36.75;24.14;101269.53;5031274;28;45411;-80
2022/05/18 06:52:09;;;;;;;;;0.00;0.00;;;;;36.88;24.17;101264.25;5016934;28;45435;-81
2022/05/18 06:54:35;;;;;;;;;1.75;0.50;;;;;36.98;23.73;101275.81;5019530;28;45632;-80
2022/05/18 06:57:03;;;;;;;;;0.50;0.50;;;;;37.04;23.73;101271.47;5023008;28;46447;-80
2022/05/18 06:59:28;;;;;;;;;2.00;0.00;;;;;37.26;23.92;101268.84;5033721;28;45602;-80
2022/05/18 07:01:53;;;;;;;;;1.00;1.00;;;;;37.62;23.07;101266.13;5026583;28;45333;-81
2022/05/18 07:04:19;;;;;;;;;0.00;0.00;;;;;37.86;22.27;101256.69;5020884;28;45398;-80
2022/05/18 07:06:45;;;;;;;;;0.00;0.00;;;;;37.90;22.69;101268.22;5030911;28;46017;-80
2022/05/18 07:09:14;;;;;;;;;0.50;0.50;;;;;37.95;22.78;101268.47;5026030;28;45644;-81
2022/05/18 07:11:40;;;;;;;;;1.25;0.00;;;;;37.91;22.53;101269.91;5018567;28;45364;-82
2022/05/18 07:14:06;;;;;;;;;0.00;0.00;;;;;37.44;22.95;101265.69;5029554;28;45378;-82
2022/05/18 07:16:33;;;;;;;;;0.00;0.00;;;;;37.24;22.98;101263.53;5018835;28;46033;-80
2022/05/18 07:18:59;;;;;;;;;1.00;1.00;;;;;37.17;23.16;101268.91;5034563;28;45385;-81
2022/05/18 07:21:25;;;;;;;;;0.00;0.00;;;;;36.89;23.31;101260.44;5038612;28;45481;-81
2022/05/18 07:23:52;;;;;;;;;1.00;0.25;;;;;36.61;23.24;101255.53;5034093;28;45363;-82
2022/05/18 07:26:19;;;;;;;;;0.00;0.00;;;;;36.42;24.02;101262.38;5024346;28;45389;-75
2022/05/18 07:28:45;;;;;;;;;1.00;1.00;;;;;36.14;24.50;101267.56;5031918;28;45432;-80
2022/05/18 07:31:14;;;;;;;;;1.00;1.00;;;;;35.86;25.06;101269.97;5025394;28;45435;-77
2022/05/18 07:33:40;;;;;;;;;2.25;1.25;;;;;35.91;24.57;101271.16;5032509;28;45476;-80
2022/05/18 07:36:06;;;;;;;;;0.50;0.50;;;;;35.90;24.85;101271.34;5024428;28;46089;-77
2022/05/18 07:38:34;;;;;;;;;2.75;0.25;;;;;36.25;24.88;101269.88;5024737;28;45468;-82
2022/05/18 07:41:00;;;;;;;;;0.25;0.25;;;;;36.52;24.89;101264.91;5030558;28;45649;-78
2022/05/18 07:43:26;;;;;;;;;1.00;1.00;;;;;36.86;23.72;101266.31;5020706;28;45351;-78
2022/05/18 07:45:54;;;;;;;;;1.00;1.00;;;;;37.11;24.45;101274.31;5025165;28;45310;-81
2022/05/18 07:48:21;;;;;;;;;0.25;0.25;;;;;37.17;23.55;101276.31;5022169;28;45497;-77
2022/05/18 07:50:47;;;;;;;;;0.00;0.00;;;;;36.90;24.27;101275.91;5014060;28;45508;-77
2022/05/18 07:53:13;;;;;;;;;1.00;1.00;;;;;37.03;24.14;101277.16;5019934;28;45600;-80
2022/05/18 07:55:38;;;;;;;;;1.25;0.25;;;;;36.91;23.88;101266.63;5019692;28;46174;-75
2022/05/18 07:58:10;;;;;;;;;0.50;0.25;;;;;36.57;24.57;101258.84;5028910;28;45331;-76
2022/05/18 08:00:36;;;;;;;;;1.00;1.00;;;;;36.87;24.12;101265.28;5026410;28;45502;-76
2022/05/18 08:03:02;;;;;;;;;1.00;1.00;;;;;36.92;24.42;101270.22;5027852;28;45497;-76
2022/05/18 08:05:30;;;;;;;;;1.50;1.50;;;;;36.97;23.65;101257.63;5015344;28;45364;-76
2022/05/18 08:07:56;;;;;;;;;4.00;2.00;;;;;37.23;23.85;101261.84;5022063;28;45520;-74
2022/05/18 08:15:53;;;;;;;;;3.00;1.00;;;;;36.96;24.45;101272.41;5018960;28;45481;-77
2022/05/18 08:18:18;;;;;;;;;0.25;0.25;;;;;37.19;24.51;101273.34;5029030;28;45493;-77
2022/05/18 08:20:45;;;;;;;;;0.50;0.50;;;;;37.12;24.37;101262.25;5026851;28;45526;-74
2022/05/18 08:23:11;;;;;;;;;1.50;1.50;;;;;37.47;24.48;101263.41;5021898;28;45584;-78
2022/05/18 08:25:37;;;;;;;;;2.50;1.50;;;;;38.01;23.88;101258.56;5015047;28;45543;-76
2022/05/18 08:28:04;;;;;;;;;1.00;0.75;;;;;37.98;23.22;101272.75;5026700;28;45652;-81
2022/05/18 08:30:31;;;;;;;;;3.50;2.00;;;;;37.44;23.56;101272.06;5025664;28;45536;-80
2022/05/18 08:33:01;;;;;;;;;0.00;0.00;;;;;37.19;24.29;101260.47;5022923;28;45576;-79
2022/05/18 08:35:28;;;;;;;;;4.00;4.00;;;;;37.03;24.53;101255.13;5019599;28;45561;-81
2022/05/18 08:37:54;;;;;;;;;2.25;2.00;;;;;36.97;24.75;101252.09;5018772;28;45624;-82
2022/05/18 08:40:35;;;;;;;;;2.25;2.25;;;;;36.66;25.15;101267.88;5026222;28;45515;-81
2022/05/18 08:43:04;;;;;;;;;2.50;2.50;;;;;36.34;25.71;101256.13;5022618;28;45343;-81
2022/05/18 08:45:34;;;;;;;;;3.00;2.00;;;;;36.10;25.70;101266.22;5021704;28;46619;-81
2022/05/18 08:48:06;;;;;;;;;1.50;1.50;;;;;35.86;26.50;101257.06;5019845;28;45516;-80
2022/05/18 08:50:33;;;;;;;;;0.00;0.00;;;;;35.62;26.82;101257.19;5026540;28;45499;-82
2022/05/18 08:53:38;;;;;;;;;3.25;2.00;;;;;35.38;27.13;101259.03;5024800;28;45807;-80
2022/05/18 08:56:28;;;;;;;;;2.75;2.75;;;;;35.33;27.27;101253.19;5025805;28;46033;-75
2022/05/18 08:58:55;;;;;;;;;2.75;2.75;;;;;35.48;26.27;101264.31;5029153;28;45524;-78
2022/05/18 09:01:40;;;;;;;;;1.75;1.75;;;;;35.53;26.95;101254.50;5025763;28;45440;-76
2022/05/18 09:04:20;;;;;;;;;3.00;3.00;;;;;35.72;26.90;101257.84;5020010;28;45466;-77
2022/05/18 09:07:04;;;;;;;;;4.50;3.00;;;;;35.35;26.59;101256.66;5016373;28;48447;-77
2022/05/18 09:12:38;;;;;;;;;2.50;2.50;;;;;35.11;27.53;101249.31;5024916;28;45403;-78
2022/05/18 09:15:05;;;;;;;;;2.25;2.00;;;;;35.23;27.68;101243.25;5021772;28;45474;-80
2022/05/18 09:17:36;;;;;;;;;3.00;3.00;;;;;35.09;27.47;101248.59;5027824;28;45501;-80
2022/05/18 09:20:11;;;;;;;;;3.50;3.50;;;;;34.91;27.97;101252.44;5022762;28;45478;-80
2022/05/18 09:23:03;;;;;;;;;1.50;1.50;;;;;34.85;28.29;101243.00;5029954;28;45465;-79
2022/05/18 09:25:40;;;;;;;;;2.75;2.75;;;;;35.16;27.08;101236.75;5025077;28;45530;-79
2022/05/18 09:28:24;;;;;;;;;3.75;2.75;;;;;35.56;27.52;101237.66;5032020;28;45463;-80
2022/05/18 09:31:21;;;;;;;;;3.50;3.50;;;;;35.64;27.17;101239.50;5025870;28;45576;-76
2022/05/18 09:33:55;;;;;;;;;2.00;2.00;;;;;35.96;26.56;101236.78;5028268;28;45438;-77
2022/05/18 09:36:36;;;;;;;;;1.75;1.75;;;;;36.28;26.91;101239.28;5026474;28;45502;-78
2022/05/18 09:39:04;;;;;;;;;3.00;3.00;;;;;36.46;26.04;101233.47;5016828;28;46382;-76
2022/05/18 09:41:40;;;;;;;;;2.00;1.25;;;;;36.18;25.82;101235.91;5022964;28;45544;-76
2022/05/18 09:44:45;;;;;;;;;2.00;2.00;;;;;36.46;26.39;101236.22;5029517;28;45643;-77
2022/05/18 09:47:15;;;;;;;;;2.75;2.75;;;;;36.94;25.55;101224.06;5023030;28;45577;-77
2022/05/18 09:49:45;;;;;;;;;2.75;2.75;;;;;36.82;25.29;101231.94;5025557;28;46208;-77
2022/05/18 09:52:12;;;;;;;;;2.00;2.00;;;;;36.81;25.91;101213.72;5026045;28;45451;-78
2022/05/18 09:54:38;;;;;;;;;2.00;2.00;;;;;37.49;25.89;101221.88;5029296;28;45400;-78
2022/05/18 09:57:06;;;;;;;;;2.00;2.00;;;;;37.73;24.98;101225.38;5034232;28;45430;-78
2022/05/18 09:59:37;;;;;;;;;0.75;0.75;;;;;37.92;25.63;101216.47;5029386;28;45970;-77
2022/05/18 10:07:48;;;;;;;;;3.00;3.00;;;;;37.86;24.54;101206.22;5023597;28;45633;-78
2022/05/18 10:10:25;;;;;;;;;2.00;2.00;;;;;37.34;24.86;101210.91;5026375;28;45420;-78
2022/05/18 10:12:53;;;;;;;;;2.75;2.75;;;;;36.50;25.56;101206.44;5024327;28;45578;-77
2022/05/18 10:15:24;;;;;;;;;1.00;1.00;;;;;36.68;26.37;101199.72;5016137;28;45456;-78
2022/05/18 10:17:56;;;;;;;;;2.00;2.00;;;;;37.01;25.68;101202.16;5027623;28;45668;-78
2022/05/18 10:20:32;;;;;;;;;1.75;1.75;;;;;36.73;26.38;101194.50;5028123;28;46083;-77
2022/05/18 10:22:59;;;;;;;;;2.75;2.25;;;;;36.57;26.20;101193.63;5023203;28;45446;-77
2022/05/18 10:25:41;;;;;;;;;4.25;4.25;;;;;36.79;26.86;101185.53;5021168;28;45438;-78
2022/05/18 10:28:24;;;;;;;;;2.50;2.50;;;;;36.79;24.97;101189.16;5024149;28;45379;-78
2022/05/18 10:30:54;;;;;;;;;2.75;2.75;;;;;36.89;25.45;101183.34;5022905;28;47358;-76
2022/05/18 10:33:23;;;;;;;;;2.50;2.50;;;;;36.41;24.98;101185.53;5025072;28;45738;-78
2022/05/18 10:35:54;;;;;;;;;3.00;2.50;;;;;36.18;26.15;101180.88;5029135;28;45453;-78
2022/05/18 10:38:24;;;;;;;;;1.00;1.00;;;;;36.28;25.54;101187.03;5032079;28;45447;-76
2022/05/18 10:40:53;;;;;;;;;1.75;1.75;;;;;36.42;25.58;101170.75;5018808;28;46056;-83
2022/05/18 10:43:22;;;;;;;;;2.00;2.00;;;;;36.65;24.68;101170.69;5023276;28;45518;-81
2022/05/18 10:45:57;;;;;;;;;2.50;1.50;;;;;36.95;26.65;101170.72;5030306;28;45419;-78
2022/05/18 10:48:27;;;;;;;;;2.00;2.00;;;;;37.07;24.84;101162.84;5026287;28;45340;-77
2022/05/18 10:51:11;;;;;;;;;3.50;3.00;;;;;37.25;24.28;101157.81;5034788;28;45407;-81
2022/05/18 10:53:41;;;;;;;;;1.75;1.75;;;;;37.04;24.83;101158.56;5029948;28;45349;-82
2022/05/18 10:56:12;;;;;;;;;3.00;3.00;;;;;36.87;25.11;101163.41;5033556;28;45461;-81
2022/05/18 10:58:37;;;;;;;;;3.50;3.50;;;;;36.92;25.32;101155.44;5018817;28;45537;-81
2022/05/18 11:01:12;;;;;;;;;2.00;2.00;;;;;37.01;25.38;101152.59;5024598;28;47703;-82
2022/05/18 11:03:45;;;;;;;;;2.25;2.00;;;;;37.26;24.90;101133.84;5026334;28;45391;-81
2022/05/18 11:06:18;;;;;;;;;2.25;2.25;;;;;37.10;24.97;101146.78;5027407;28;45573;-80
2022/05/18 11:08:43;;;;;;;;;2.00;2.00;;;;;37.07;24.93;101149.91;5016710;28;45573;-77
2022/05/18 11:11:34;;;;;;;;;1.00;1.00;;;;;36.92;25.07;101158.19;5021137;28;45466;-79
2022/05/18 11:14:28;;;;;;;;;2.75;2.75;;;;;36.94;24.87;101153.34;5029053;28;45442;-78
2022/05/18 11:16:56;;;;;;;;;2.50;2.50;;;;;37.08;24.97;101154.38;4995925;28;45472;-78
2022/05/18 11:19:37;;;;;;;;;3.75;3.00;;;;;36.96;25.08;101156.75;5018777;28;45537;-78
2022/05/18 11:22:14;;;;;;;;;3.50;2.25;;;;;36.94;25.20;101153.34;5021625;28;45402;-77
2022/05/18 11:24:51;;;;;;;;;2.75;2.50;;;;;36.79;25.22;101128.59;5026589;28;45371;-77
2022/05/18 11:27:39;;;;;;;;;2.25;2.25;;;;;36.96;24.97;101144.91;5021607;28;45439;-78
2022/05/18 11:30:07;;;;;;;;;3.25;2.75;;;;;36.87;25.04;101146.91;5019218;28;45477;-78
2022/05/18 11:32:51;;;;;;;;;4.25;3.00;;;;;36.91;24.27;101148.25;5018008;28;46211;-78
2022/05/18 11:35:32;;;;;;;;;2.00;1.00;;;;;36.23;24.86;101139.94;5021201;28;45489;-76
2022/05/18 11:38:16;;;;;;;;;4.00;4.00;;;;;36.14;24.18;101134.69;5023094;28;45486;-78
2022/05/18 11:40:56;;;;;;;;;2.00;2.00;;;;;36.35;24.44;101136.75;5023101;28;45618;-78
2022/05/18 11:43:58;;;;;;;;;4.25;3.25;;;;;36.06;24.65;101138.38;5022484;28;45533;-79
2022/05/18 11:46:38;;;;;;;;;2.00;2.00;;;;;35.82;25.31;101123.81;5025109;28;45518;-82
2022/05/18 11:49:13;;;;;;;;;1.25;1.25;;;;;36.04;25.95;101119.31;5023224;28;45604;-81
2022/05/18 11:51:53;;;;;;;;;2.25;2.25;;;;;36.32;25.48;101123.38;5029032;28;45581;-82
2022/05/18 11:54:56;;;;;;;;;2.00;2.00;;;;;35.75;25.06;101122.78;5017653;28;46241;-78
2022/05/18 11:57:51;;;;;;;;;3.25;3.25;;;;;35.18;26.17;101124.84;5025544;28;45496;-77
2022/05/18 12:00:56;;;;;;;;;2.25;2.25;;;;;35.07;25.69;101129.88;5023440;28;45626;-78
2022/05/18 12:03:32;;;;;;;;;3.75;3.00;;;;;34.88;25.94;101130.13;5017623;28;45459;-76
2022/05/18 12:06:31;;;;;;;;;4.00;3.00;;;;;34.39;26.44;101124.72;5014414;28;45485;-77
2022/05/18 12:09:06;;;;;;;;;3.75;3.75;;;;;33.95;27.39;101116.84;5019039;28;45545;-78
2022/05/18 12:11:47;;;;;;;;;3.00;3.00;;;;;33.62;27.50;101105.88;5014932;28;46373;-78
2022/05/18 12:14:33;;;;;;;;;3.00;3.00;;;;;33.46;27.68;101104.78;5022532;28;45614;-79
2022/05/18 12:17:07;;;;;;;;;2.25;2.25;;;;;33.32;27.35;101104.63;5029420;28;48104;-81
2022/05/18 12:19:55;;;;;;;;;2.00;2.00;;;;;33.23;26.41;101107.31;5020892;28;45473;-81
2022/05/18 12:22:24;;;;;;;;;2.00;1.00;;;;;32.77;26.02;101101.28;5018817;28;45806;-78